PWSweather.com
Personal Weather Stations
Station Observations
WD4JKH
Forsyth, GA 31029

Forsyth, GA 31029

Lat: 33.033225, Lon: -83.927995

Elevation: 709

Station Type: Davis Vantage VUE

High Low Average
Temperature 64.4°F18.0°C 49.4°F9.7°C 55.2°F12.9°C
Dew Point 54.8°F12.7°C 18.6°F-7.4°C 41.5°F5.3°C
Winds 11.5 mph 18.5 kmh Calm Calm 4.0 mph NW6.4 kmh NW
Wind Gusts 19.0 mph30.6 kmh -- 11.0 mph17.7 kmh
Humidity 99% 20% 69%
Pressure 30.29 in1025.7 mb 29.90 in1012.5 mb -
Precipitation 0.03 in0.8 mm - -
Hour Temp Dew Point Humidity Winds Wind Gusts Pressure Precip Precip Rate Daily Precip Total
12:02 AM 55.1°F12.8°C 54.8°F12.7°C 99% 1.8 mph WSW2.9 kmh WSW 2.0 mph3.2 kmh 29.90 in1012.5 mb 0.00 in0.0 mm 0.00 in0.0 mm 0.00 in0.0 mm
12:07 AM 54.9°F12.7°C 54.6°F12.6°C 99% 8.6 mph NNW13.8 kmh NNW 15.0 mph24.1 kmh 29.92 in1013.2 mb 0.00 in0.0 mm 0.00 in0.0 mm 0.00 in0.0 mm
12:12 AM 53.6°F12.0°C 53.0°F11.7°C 98% 1.7 mph NE2.7 kmh NE 15.0 mph24.1 kmh 29.91 in1012.9 mb 0.00 in0.0 mm 0.00 in0.0 mm 0.00 in0.0 mm
12:17 AM 53.7°F12.1°C 53.4°F11.9°C 99% 4.5 mph N7.2 kmh N 15.0 mph24.1 kmh 29.92 in1013.2 mb 0.00 in0.0 mm 0.00 in0.0 mm 0.00 in0.0 mm
12:22 AM 53.8°F12.1°C 53.2°F11.8°C 98% 3.0 mph NNW4.8 kmh NNW 15.0 mph24.1 kmh 29.92 in1013.2 mb 0.00 in0.0 mm 0.00 in0.0 mm 0.00 in0.0 mm
12:27 AM 53.9°F12.2°C 53.6°F12.0°C 99% 5.7 mph NNW9.2 kmh NNW 13.0 mph20.9 kmh 29.92 in1013.2 mb 0.00 in0.0 mm 0.00 in0.0 mm 0.00 in0.0 mm
12:32 AM 53.8°F12.1°C 53.2°F11.8°C 98% 3.6 mph NW5.8 kmh NW 13.0 mph20.9 kmh 29.93 in1013.5 mb 0.00 in0.0 mm 0.00 in0.0 mm 0.00 in0.0 mm
12:37 AM 53.8°F12.1°C 53.2°F11.8°C 98% 2.8 mph NNW4.5 kmh NNW 13.0 mph20.9 kmh 29.93 in1013.5 mb 0.00 in0.0 mm 0.00 in0.0 mm 0.00 in0.0 mm
12:42 AM 53.6°F12.0°C 53.0°F11.7°C 98% 3.2 mph NW5.1 kmh NW 13.0 mph20.9 kmh 29.93 in1013.5 mb 0.00 in0.0 mm 0.00 in0.0 mm 0.00 in0.0 mm
12:47 AM 53.2°F11.8°C 52.6°F11.4°C 98% 3.1 mph NW5.0 kmh NW 12.0 mph19.3 kmh 29.94 in1013.9 mb 0.00 in0.0 mm 0.00 in0.0 mm 0.00 in0.0 mm
12:52 AM 53.0°F11.7°C 52.4°F11.3°C 98% 3.6 mph NNW5.8 kmh NNW 12.0 mph19.3 kmh 29.94 in1013.9 mb 0.01 in0.3 mm 0.12 in3.0 mm 0.01 in0.3 mm
12:57 AM 52.9°F11.6°C 52.3°F11.3°C 98% 2.7 mph NNW4.3 kmh NNW 11.0 mph17.7 kmh 29.94 in1013.9 mb 0.01 in0.3 mm 0.00 in0.0 mm 0.01 in0.3 mm
01:02 AM 52.8°F11.6°C 52.2°F11.2°C 98% 3.7 mph NNW6.0 kmh NNW 11.0 mph17.7 kmh 29.94 in1013.9 mb 0.01 in0.3 mm 0.00 in0.0 mm 0.01 in0.3 mm
01:07 AM 52.8°F11.6°C 52.3°F11.3°C 98% 1.9 mph N3.1 kmh N 9.0 mph14.5 kmh 29.95 in1014.2 mb 0.01 in0.3 mm 0.00 in0.0 mm 0.01 in0.3 mm
01:12 AM 52.7°F11.5°C 52.1°F11.2°C 98% 2.2 mph NNW3.5 kmh NNW 7.0 mph11.3 kmh 29.95 in1014.2 mb 0.01 in0.3 mm 0.00 in0.0 mm 0.01 in0.3 mm
01:17 AM 52.6°F11.4°C 52.1°F11.2°C 98% 1.3 mph NNW2.1 kmh NNW 7.0 mph11.3 kmh 29.95 in1014.2 mb 0.01 in0.3 mm 0.00 in0.0 mm 0.01 in0.3 mm
01:22 AM 52.4°F11.3°C 51.8°F11.0°C 98% 1.4 mph NNW2.3 kmh NNW 9.0 mph14.5 kmh 29.95 in1014.2 mb 0.01 in0.3 mm 0.00 in0.0 mm 0.01 in0.3 mm
01:27 AM 52.4°F11.3°C 51.8°F11.0°C 98% 1.8 mph N2.9 kmh N 9.0 mph14.5 kmh 29.95 in1014.2 mb 0.01 in0.3 mm 0.00 in0.0 mm 0.01 in0.3 mm
01:32 AM 52.2°F11.2°C 51.6°F10.9°C 98% 1.9 mph NNW3.1 kmh NNW 9.0 mph14.5 kmh 29.95 in1014.2 mb 0.01 in0.3 mm 0.00 in0.0 mm 0.01 in0.3 mm
01:37 AM 52.1°F11.2°C 51.5°F10.8°C 98% 2.6 mph N4.2 kmh N 9.0 mph14.5 kmh 29.95 in1014.2 mb 0.01 in0.3 mm 0.00 in0.0 mm 0.01 in0.3 mm
01:42 AM 51.9°F11.1°C 51.4°F10.8°C 98% 3.8 mph NNW6.1 kmh NNW 7.0 mph11.3 kmh 29.95 in1014.2 mb 0.01 in0.3 mm 0.00 in0.0 mm 0.01 in0.3 mm
01:47 AM 51.8°F11.0°C 51.2°F10.7°C 98% 1.9 mph NW3.1 kmh NW 7.0 mph11.3 kmh 29.95 in1014.2 mb 0.01 in0.3 mm 0.00 in0.0 mm 0.01 in0.3 mm
01:52 AM 51.8°F11.0°C 51.2°F10.7°C 98% 2.9 mph NNW4.7 kmh NNW 7.0 mph11.3 kmh 29.95 in1014.2 mb 0.00 in0.0 mm 0.00 in0.0 mm 0.01 in0.3 mm
01:57 AM 51.8°F11.0°C 51.2°F10.7°C 98% 2.3 mph NNW3.7 kmh NNW 7.0 mph11.3 kmh 29.95 in1014.2 mb 0.00 in0.0 mm 0.00 in0.0 mm 0.01 in0.3 mm
02:02 AM 51.8°F11.0°C 51.2°F10.7°C 98% 1.3 mph N2.1 kmh N 6.0 mph9.7 kmh 29.96 in1014.6 mb 0.00 in0.0 mm 0.00 in0.0 mm 0.01 in0.3 mm
02:07 AM 51.7°F10.9°C 51.1°F10.6°C 98% 1.4 mph NNW2.3 kmh NNW 6.0 mph9.7 kmh 29.96 in1014.6 mb 0.00 in0.0 mm 0.00 in0.0 mm 0.01 in0.3 mm
02:12 AM 51.6°F10.9°C 51.1°F10.6°C 98% 1.8 mph N2.9 kmh N 6.0 mph9.7 kmh 29.96 in1014.6 mb 0.00 in0.0 mm 0.00 in0.0 mm 0.01 in0.3 mm
02:17 AM 51.4°F10.8°C 50.9°F10.5°C 98% 2.0 mph NNE3.2 kmh NNE 6.0 mph9.7 kmh 29.96 in1014.6 mb 0.00 in0.0 mm 0.00 in0.0 mm 0.01 in0.3 mm
02:22 AM 51.3°F10.7°C 50.7°F10.4°C 98% 1.8 mph NNW2.9 kmh NNW 6.0 mph9.7 kmh 29.96 in1014.6 mb 0.00 in0.0 mm 0.00 in0.0 mm 0.01 in0.3 mm
02:27 AM 51.2°F10.7°C 50.6°F10.3°C 98% 2.0 mph NNW3.2 kmh NNW 6.0 mph9.7 kmh 29.96 in1014.6 mb 0.00 in0.0 mm 0.00 in0.0 mm 0.01 in0.3 mm
02:32 AM 51.1°F10.6°C 50.5°F10.3°C 98% 1.3 mph NNW2.1 kmh NNW 5.0 mph8.0 kmh 29.96 in1014.6 mb 0.00 in0.0 mm 0.00 in0.0 mm 0.01 in0.3 mm
02:37 AM 51.0°F10.6°C 50.4°F10.2°C 98% 2.5 mph NNW4.0 kmh NNW 5.0 mph8.0 kmh 29.96 in1014.6 mb 0.00 in0.0 mm 0.00 in0.0 mm 0.01 in0.3 mm
02:42 AM 51.0°F10.6°C 50.4°F10.2°C 98% 2.3 mph NW3.7 kmh NW 5.0 mph8.0 kmh 29.96 in1014.6 mb 0.00 in0.0 mm 0.00 in0.0 mm 0.01 in0.3 mm
02:47 AM 50.9°F10.5°C 50.4°F10.2°C 98% 2.2 mph NNW3.5 kmh NNW 5.0 mph8.0 kmh 29.96 in1014.6 mb 0.00 in0.0 mm 0.00 in0.0 mm 0.01 in0.3 mm
02:52 AM 50.9°F10.5°C 50.3°F10.2°C 98% 1.6 mph N2.6 kmh N 5.0 mph8.0 kmh 29.96 in1014.6 mb 0.00 in0.0 mm 0.00 in0.0 mm 0.01 in0.3 mm
02:57 AM 50.8°F10.4°C 50.2°F10.1°C 98% 1.1 mph NNW1.8 kmh NNW 5.0 mph8.0 kmh 29.97 in1014.9 mb 0.00 in0.0 mm 0.00 in0.0 mm 0.01 in0.3 mm
03:02 AM 50.8°F10.4°C 50.2°F10.1°C 98% 1.8 mph N2.9 kmh N 5.0 mph8.0 kmh 29.97 in1014.9 mb 0.00 in0.0 mm 0.00 in0.0 mm 0.01 in0.3 mm
03:07 AM 50.8°F10.4°C 50.2°F10.1°C 98% 1.6 mph NNW2.6 kmh NNW 4.0 mph6.4 kmh 29.98 in1015.2 mb 0.00 in0.0 mm 0.00 in0.0 mm 0.01 in0.3 mm
03:12 AM 50.7°F10.4°C 50.1°F10.1°C 98% 2.2 mph NNW3.5 kmh NNW 6.0 mph9.7 kmh 29.97 in1014.9 mb 0.00 in0.0 mm 0.00 in0.0 mm 0.01 in0.3 mm
03:17 AM 50.6°F10.3°C 50.0°F10.0°C 98% 2.5 mph NNW4.0 kmh NNW 6.0 mph9.7 kmh 29.98 in1015.2 mb 0.00 in0.0 mm 0.00 in0.0 mm 0.01 in0.3 mm
03:22 AM 50.6°F10.3°C 50.1°F10.1°C 98% 2.1 mph NW3.4 kmh NW 6.0 mph9.7 kmh 29.98 in1015.2 mb 0.00 in0.0 mm 0.00 in0.0 mm 0.01 in0.3 mm
03:27 AM 50.6°F10.3°C 50.0°F10.0°C 98% 3.8 mph NW6.1 kmh NW 7.0 mph11.3 kmh 29.99 in1015.6 mb 0.00 in0.0 mm 0.00 in0.0 mm 0.01 in0.3 mm
03:32 AM 50.5°F10.3°C 49.9°F9.9°C 98% 3.3 mph NW5.3 kmh NW 7.0 mph11.3 kmh 29.99 in1015.6 mb 0.00 in0.0 mm 0.00 in0.0 mm 0.01 in0.3 mm
03:37 AM 50.5°F10.3°C 49.9°F9.9°C 98% 1.9 mph NNW3.1 kmh NNW 7.0 mph11.3 kmh 29.99 in1015.6 mb 0.00 in0.0 mm 0.00 in0.0 mm 0.01 in0.3 mm
03:42 AM 50.4°F10.2°C 49.9°F9.9°C 98% 3.2 mph NW5.1 kmh NW 7.0 mph11.3 kmh 29.99 in1015.6 mb 0.00 in0.0 mm 0.00 in0.0 mm 0.01 in0.3 mm
03:47 AM 50.4°F10.2°C 49.8°F9.9°C 98% 3.3 mph NW5.3 kmh NW 8.0 mph12.9 kmh 29.99 in1015.6 mb 0.00 in0.0 mm 0.00 in0.0 mm 0.01 in0.3 mm
03:52 AM 50.4°F10.2°C 49.8°F9.9°C 98% 3.1 mph NW5.0 kmh NW 8.0 mph12.9 kmh 29.99 in1015.6 mb 0.00 in0.0 mm 0.00 in0.0 mm 0.01 in0.3 mm
03:57 AM 50.4°F10.2°C 49.8°F9.9°C 98% 2.2 mph NW3.5 kmh NW 8.0 mph12.9 kmh 30.00 in1015.9 mb 0.00 in0.0 mm 0.00 in0.0 mm 0.01 in0.3 mm
04:02 AM 50.4°F10.2°C 49.8°F9.9°C 98% 3.5 mph NW5.6 kmh NW 9.0 mph14.5 kmh 30.00 in1015.9 mb 0.00 in0.0 mm 0.00 in0.0 mm 0.01 in0.3 mm
04:07 AM 50.4°F10.2°C 49.9°F9.9°C 98% 3.1 mph NW5.0 kmh NW 9.0 mph14.5 kmh 30.00 in1015.9 mb 0.00 in0.0 mm 0.00 in0.0 mm 0.01 in0.3 mm
04:12 AM 50.4°F10.2°C 49.8°F9.9°C 98% 2.4 mph NW3.9 kmh NW 9.0 mph14.5 kmh 30.00 in1015.9 mb 0.00 in0.0 mm 0.00 in0.0 mm 0.01 in0.3 mm
04:17 AM 50.4°F10.2°C 49.8°F9.9°C 98% 2.7 mph NW4.3 kmh NW 7.0 mph11.3 kmh 30.00 in1015.9 mb 0.00 in0.0 mm 0.00 in0.0 mm 0.01 in0.3 mm
04:23 AM 50.5°F10.3°C 49.9°F9.9°C 98% 2.7 mph NW4.3 kmh NW 7.0 mph11.3 kmh 30.01 in1016.3 mb 0.00 in0.0 mm 0.00 in0.0 mm 0.01 in0.3 mm
04:28 AM 50.5°F10.3°C 49.9°F9.9°C 98% 3.0 mph NW4.8 kmh NW 7.0 mph11.3 kmh 30.01 in1016.3 mb 0.00 in0.0 mm 0.00 in0.0 mm 0.01 in0.3 mm
04:33 AM 50.5°F10.3°C 50.0°F10.0°C 98% 3.1 mph NW5.0 kmh NW 7.0 mph11.3 kmh 30.02 in1016.6 mb 0.00 in0.0 mm 0.00 in0.0 mm 0.01 in0.3 mm
04:38 AM 50.5°F10.3°C 49.9°F9.9°C 98% 3.6 mph NW5.8 kmh NW 9.0 mph14.5 kmh 30.01 in1016.3 mb 0.00 in0.0 mm 0.00 in0.0 mm 0.01 in0.3 mm
04:43 AM 50.6°F10.3°C 50.0°F10.0°C 98% 1.2 mph NW1.9 kmh NW 9.0 mph14.5 kmh 30.02 in1016.6 mb 0.00 in0.0 mm 0.00 in0.0 mm 0.01 in0.3 mm
04:48 AM 50.6°F10.3°C 50.0°F10.0°C 98% 2.8 mph NW4.5 kmh NW 9.0 mph14.5 kmh 30.02 in1016.6 mb 0.00 in0.0 mm 0.00 in0.0 mm 0.01 in0.3 mm
04:53 AM 50.7°F10.4°C 50.1°F10.1°C 98% 3.2 mph NW5.1 kmh NW 9.0 mph14.5 kmh 30.02 in1016.6 mb 0.00 in0.0 mm 0.00 in0.0 mm 0.01 in0.3 mm
04:58 AM 50.7°F10.4°C 50.1°F10.1°C 98% 2.6 mph NW4.2 kmh NW 7.0 mph11.3 kmh 30.02 in1016.6 mb 0.00 in0.0 mm 0.00 in0.0 mm 0.01 in0.3 mm
05:03 AM 50.8°F10.4°C 50.3°F10.2°C 98% 1.7 mph NW2.7 kmh NW 6.0 mph9.7 kmh 30.02 in1016.6 mb 0.00 in0.0 mm 0.00 in0.0 mm 0.01 in0.3 mm
05:08 AM 50.8°F10.4°C 50.2°F10.1°C 98% 2.0 mph NW3.2 kmh NW 6.0 mph9.7 kmh 30.02 in1016.6 mb 0.00 in0.0 mm 0.00 in0.0 mm 0.01 in0.3 mm
05:13 AM 50.8°F10.4°C 50.2°F10.1°C 98% 1.5 mph NW2.4 kmh NW 6.0 mph9.7 kmh 30.02 in1016.6 mb 0.01 in0.3 mm 0.12 in3.0 mm 0.02 in0.5 mm
05:18 AM 50.9°F10.5°C 50.3°F10.2°C 98% 3.9 mph NW6.3 kmh NW 8.0 mph12.9 kmh 30.02 in1016.6 mb 0.01 in0.3 mm 0.00 in0.0 mm 0.02 in0.5 mm
05:23 AM 50.9°F10.5°C 50.3°F10.2°C 98% 2.3 mph NNW3.7 kmh NNW 8.0 mph12.9 kmh 30.02 in1016.6 mb 0.01 in0.3 mm 0.00 in0.0 mm 0.02 in0.5 mm
05:28 AM 50.9°F10.5°C 50.4°F10.2°C 98% 1.6 mph W2.6 kmh W 8.0 mph12.9 kmh 30.02 in1016.6 mb 0.01 in0.3 mm 0.00 in0.0 mm 0.02 in0.5 mm
05:33 AM 50.9°F10.5°C 50.3°F10.2°C 98% 1.4 mph NNW2.3 kmh NNW 8.0 mph12.9 kmh 30.02 in1016.6 mb 0.01 in0.3 mm 0.00 in0.0 mm 0.02 in0.5 mm
05:38 AM 51.0°F10.6°C 50.4°F10.2°C 98% 2.2 mph NNW3.5 kmh NNW 5.0 mph8.0 kmh 30.02 in1016.6 mb 0.01 in0.3 mm 0.00 in0.0 mm 0.02 in0.5 mm
05:43 AM 50.9°F10.5°C 50.3°F10.2°C 98% 1.5 mph NW2.4 kmh NW 5.0 mph8.0 kmh 30.02 in1016.6 mb 0.01 in0.3 mm 0.00 in0.0 mm 0.02 in0.5 mm
05:48 AM 50.9°F10.5°C 50.3°F10.2°C 98% 1.6 mph NW2.6 kmh NW 4.0 mph6.4 kmh 30.02 in1016.6 mb 0.01 in0.3 mm 0.00 in0.0 mm 0.02 in0.5 mm
05:53 AM 51.0°F10.6°C 50.4°F10.2°C 98% Calm Calm 4.0 mph6.4 kmh 30.01 in1016.3 mb 0.01 in0.3 mm 0.00 in0.0 mm 0.02 in0.5 mm
05:58 AM 51.0°F10.6°C 50.4°F10.2°C 98% 1.0 mph WNW1.6 kmh WNW 4.0 mph6.4 kmh 30.02 in1016.6 mb 0.02 in0.5 mm 0.12 in3.0 mm 0.03 in0.8 mm
06:03 AM 51.0°F10.6°C 50.4°F10.2°C 98% Calm Calm 4.0 mph6.4 kmh 30.02 in1016.6 mb 0.02 in0.5 mm 0.00 in0.0 mm 0.03 in0.8 mm
06:08 AM 51.0°F10.6°C 50.4°F10.2°C 98% Calm Calm 2.0 mph3.2 kmh 30.02 in1016.6 mb 0.02 in0.5 mm 0.00 in0.0 mm 0.03 in0.8 mm
06:13 AM 51.1°F10.6°C 50.5°F10.3°C 98% Calm Calm 1.0 mph1.6 kmh 30.02 in1016.6 mb 0.01 in0.3 mm 0.00 in0.0 mm 0.03 in0.8 mm
06:18 AM 51.1°F10.6°C 50.6°F10.3°C 98% Calm Calm -- 30.02 in1016.6 mb 0.01 in0.3 mm 0.00 in0.0 mm 0.03 in0.8 mm
06:23 AM 51.1°F10.6°C 50.6°F10.3°C 98% Calm Calm 1.0 mph1.6 kmh 30.02 in1016.6 mb 0.01 in0.3 mm 0.00 in0.0 mm 0.03 in0.8 mm
06:28 AM 51.1°F10.6°C 50.5°F10.3°C 98% Calm Calm 1.0 mph1.6 kmh 30.03 in1016.9 mb 0.01 in0.3 mm 0.00 in0.0 mm 0.03 in0.8 mm
06:33 AM 51.1°F10.6°C 50.5°F10.3°C 98% Calm Calm 1.0 mph1.6 kmh 30.03 in1016.9 mb 0.01 in0.3 mm 0.00 in0.0 mm 0.03 in0.8 mm
06:38 AM 51.2°F10.7°C 50.6°F10.3°C 98% Calm Calm 1.0 mph1.6 kmh 30.03 in1016.9 mb 0.01 in0.3 mm 0.00 in0.0 mm 0.03 in0.8 mm
06:43 AM 51.2°F10.7°C 50.6°F10.3°C 98% Calm Calm -- 30.04 in1017.3 mb 0.01 in0.3 mm 0.00 in0.0 mm 0.03 in0.8 mm
06:48 AM 51.2°F10.7°C 50.7°F10.4°C 98% 1.0 mph WNW1.6 kmh WNW 1.0 mph1.6 kmh 30.04 in1017.3 mb 0.01 in0.3 mm 0.00 in0.0 mm 0.03 in0.8 mm
06:53 AM 51.2°F10.7°C 50.6°F10.3°C 98% 1.0 mph WNW1.6 kmh WNW 1.0 mph1.6 kmh 30.05 in1017.6 mb 0.01 in0.3 mm 0.00 in0.0 mm 0.03 in0.8 mm
06:58 AM 51.3°F10.7°C 50.7°F10.4°C 98% 1.1 mph W1.8 kmh W 2.0 mph3.2 kmh 30.05 in1017.6 mb 0.00 in0.0 mm 0.00 in0.0 mm 0.03 in0.8 mm
07:03 AM 51.4°F10.8°C 50.8°F10.4°C 98% 1.0 mph WSW1.6 kmh WSW 3.0 mph4.8 kmh 30.06 in1017.9 mb 0.00 in0.0 mm 0.00 in0.0 mm 0.03 in0.8 mm
07:08 AM 51.4°F10.8°C 50.8°F10.4°C 98% 1.0 mph W1.6 kmh W 3.0 mph4.8 kmh 30.06 in1017.9 mb 0.00 in0.0 mm 0.00 in0.0 mm 0.03 in0.8 mm
07:13 AM 51.4°F10.8°C 50.8°F10.4°C 98% 1.4 mph W2.3 kmh W 3.0 mph4.8 kmh 30.06 in1017.9 mb 0.00 in0.0 mm 0.00 in0.0 mm 0.03 in0.8 mm
07:18 AM 51.4°F10.8°C 50.8°F10.4°C 98% 1.5 mph W2.4 kmh W 3.0 mph4.8 kmh 30.07 in1018.3 mb 0.00 in0.0 mm 0.00 in0.0 mm 0.03 in0.8 mm
07:23 AM 51.5°F10.8°C 50.9°F10.5°C 98% 1.5 mph W2.4 kmh W 3.0 mph4.8 kmh 30.07 in1018.3 mb 0.00 in0.0 mm 0.00 in0.0 mm 0.03 in0.8 mm
07:28 AM 51.5°F10.8°C 51.0°F10.6°C 98% 2.6 mph WNW4.2 kmh WNW 6.0 mph9.7 kmh 30.07 in1018.3 mb 0.00 in0.0 mm 0.00 in0.0 mm 0.03 in0.8 mm
07:33 AM 51.4°F10.8°C 50.9°F10.5°C 98% 3.9 mph WNW6.3 kmh WNW 8.0 mph12.9 kmh 30.08 in1018.6 mb 0.00 in0.0 mm 0.00 in0.0 mm 0.03 in0.8 mm
07:38 AM 51.4°F10.8°C 50.6°F10.3°C 97% 3.7 mph WNW6.0 kmh WNW 10.0 mph16.1 kmh 30.08 in1018.6 mb 0.00 in0.0 mm 0.00 in0.0 mm 0.03 in0.8 mm
07:43 AM 51.3°F10.7°C 50.4°F10.2°C 97% 3.2 mph WNW5.1 kmh WNW 10.0 mph16.1 kmh 30.09 in1019.0 mb 0.00 in0.0 mm 0.00 in0.0 mm 0.03 in0.8 mm
07:48 AM 51.2°F10.7°C 49.8°F9.9°C 95% 4.3 mph WNW6.9 kmh WNW 10.0 mph16.1 kmh 30.09 in1019.0 mb 0.00 in0.0 mm 0.00 in0.0 mm 0.03 in0.8 mm
07:53 AM 51.2°F10.7°C 49.2°F9.6°C 93% 5.0 mph NW8.0 kmh NW 10.0 mph16.1 kmh 30.09 in1019.0 mb 0.00 in0.0 mm 0.00 in0.0 mm 0.03 in0.8 mm
07:58 AM 51.1°F10.6°C 48.8°F9.3°C 92% 3.1 mph WNW5.0 kmh WNW 13.0 mph20.9 kmh 30.10 in1019.3 mb 0.00 in0.0 mm 0.00 in0.0 mm 0.03 in0.8 mm
08:03 AM 50.9°F10.5°C 48.3°F9.1°C 91% 5.0 mph NW8.0 kmh NW 15.0 mph24.1 kmh 30.10 in1019.3 mb 0.00 in0.0 mm 0.00 in0.0 mm 0.03 in0.8 mm
08:08 AM 50.8°F10.4°C 47.9°F8.8°C 90% 5.6 mph NW9.0 kmh NW 15.0 mph24.1 kmh 30.10 in1019.3 mb 0.00 in0.0 mm 0.00 in0.0 mm 0.03 in0.8 mm
08:13 AM 50.6°F10.3°C 47.7°F8.7°C 90% 4.7 mph WNW7.6 kmh WNW 15.0 mph24.1 kmh 30.10 in1019.3 mb 0.00 in0.0 mm 0.00 in0.0 mm 0.03 in0.8 mm
08:18 AM 50.5°F10.3°C 47.7°F8.7°C 90% 3.6 mph NW5.8 kmh NW 15.0 mph24.1 kmh 30.10 in1019.3 mb 0.00 in0.0 mm 0.00 in0.0 mm 0.03 in0.8 mm
08:23 AM 50.4°F10.2°C 47.6°F8.7°C 90% 5.2 mph NW8.4 kmh NW 13.0 mph20.9 kmh 30.11 in1019.6 mb 0.00 in0.0 mm 0.00 in0.0 mm 0.03 in0.8 mm
08:28 AM 50.3°F10.2°C 47.4°F8.6°C 90% 3.4 mph NW5.5 kmh NW 13.0 mph20.9 kmh 30.12 in1020.0 mb 0.00 in0.0 mm 0.00 in0.0 mm 0.03 in0.8 mm
08:33 AM 50.3°F10.2°C 47.7°F8.7°C 91% 4.7 mph NW7.6 kmh NW 15.0 mph24.1 kmh 30.12 in1020.0 mb 0.00 in0.0 mm 0.00 in0.0 mm 0.03 in0.8 mm
08:38 AM 50.3°F10.2°C 47.4°F8.6°C 90% 5.0 mph NW8.0 kmh NW 15.0 mph24.1 kmh 30.12 in1020.0 mb 0.00 in0.0 mm 0.00 in0.0 mm 0.03 in0.8 mm
08:43 AM 50.3°F10.2°C 47.4°F8.6°C 90% 3.2 mph NW5.1 kmh NW 15.0 mph24.1 kmh 30.12 in1020.0 mb 0.00 in0.0 mm 0.00 in0.0 mm 0.03 in0.8 mm
08:48 AM 50.2°F10.1°C 47.1°F8.4°C 89% 5.8 mph NW9.3 kmh NW 15.0 mph24.1 kmh 30.13 in1020.3 mb 0.00 in0.0 mm 0.00 in0.0 mm 0.03 in0.8 mm
08:53 AM 50.1°F10.1°C 47.0°F8.3°C 89% 3.6 mph NW5.8 kmh NW 11.0 mph17.7 kmh 30.14 in1020.7 mb 0.00 in0.0 mm 0.00 in0.0 mm 0.03 in0.8 mm
08:58 AM 50.0°F10.0°C 46.9°F8.3°C 89% 3.4 mph NW5.5 kmh NW 11.0 mph17.7 kmh 30.14 in1020.7 mb 0.00 in0.0 mm 0.00 in0.0 mm 0.03 in0.8 mm
09:03 AM 49.9°F9.9°C 46.5°F8.1°C 88% 4.1 mph NW6.6 kmh NW 11.0 mph17.7 kmh 30.15 in1021.0 mb 0.00 in0.0 mm 0.00 in0.0 mm 0.03 in0.8 mm
09:08 AM 49.7°F9.8°C 46.3°F7.9°C 88% 3.3 mph NW5.3 kmh NW 11.0 mph17.7 kmh 30.15 in1021.0 mb 0.00 in0.0 mm 0.00 in0.0 mm 0.03 in0.8 mm
09:13 AM 49.7°F9.8°C 46.3°F7.9°C 88% 2.9 mph WNW4.7 kmh WNW 11.0 mph17.7 kmh 30.16 in1021.3 mb 0.00 in0.0 mm 0.00 in0.0 mm 0.03 in0.8 mm
09:18 AM 49.6°F9.8°C 46.2°F7.9°C 88% 3.6 mph WNW5.8 kmh WNW 11.0 mph17.7 kmh 30.16 in1021.3 mb 0.00 in0.0 mm 0.00 in0.0 mm 0.03 in0.8 mm
09:23 AM 49.6°F9.8°C 45.9°F7.7°C 87% 3.5 mph NW5.6 kmh NW 10.0 mph16.1 kmh 30.16 in1021.3 mb 0.00 in0.0 mm 0.00 in0.0 mm 0.03 in0.8 mm
09:28 AM 49.5°F9.7°C 45.8°F7.7°C 87% 5.8 mph NW9.3 kmh NW 12.0 mph19.3 kmh 30.16 in1021.3 mb 0.00 in0.0 mm 0.00 in0.0 mm 0.03 in0.8 mm
09:33 AM 49.5°F9.7°C 45.8°F7.7°C 87% 5.7 mph NW9.2 kmh NW 12.0 mph19.3 kmh 30.17 in1021.7 mb 0.00 in0.0 mm 0.00 in0.0 mm 0.03 in0.8 mm
09:39 AM 49.4°F9.7°C 45.7°F7.6°C 87% 4.6 mph NW7.4 kmh NW 16.0 mph25.7 kmh 30.16 in1021.3 mb 0.00 in0.0 mm 0.00 in0.0 mm 0.03 in0.8 mm
09:44 AM 49.5°F9.7°C 46.1°F7.8°C 88% 2.9 mph NW4.7 kmh NW 16.0 mph25.7 kmh 30.17 in1021.7 mb 0.00 in0.0 mm 0.00 in0.0 mm 0.03 in0.8 mm
09:49 AM 49.8°F9.9°C 46.4°F8.0°C 88% 2.8 mph NW4.5 kmh NW 16.0 mph25.7 kmh 30.17 in1021.7 mb 0.00 in0.0 mm 0.00 in0.0 mm 0.03 in0.8 mm
09:54 AM 49.8°F9.9°C 45.8°F7.7°C 86% 4.8 mph NW7.7 kmh NW 16.0 mph25.7 kmh 30.17 in1021.7 mb 0.00 in0.0 mm 0.00 in0.0 mm 0.03 in0.8 mm
09:59 AM 49.9°F9.9°C 45.9°F7.7°C 86% 3.9 mph NW6.3 kmh NW 12.0 mph19.3 kmh 30.17 in1021.7 mb 0.00 in0.0 mm 0.00 in0.0 mm 0.03 in0.8 mm
10:04 AM 50.3°F10.2°C 46.3°F7.9°C 86% 3.9 mph NW6.3 kmh NW 12.0 mph19.3 kmh 30.18 in1022.0 mb 0.00 in0.0 mm 0.00 in0.0 mm 0.03 in0.8 mm
10:09 AM 50.4°F10.2°C 46.1°F7.8°C 85% 3.4 mph NW5.5 kmh NW 12.0 mph19.3 kmh 30.18 in1022.0 mb 0.00 in0.0 mm 0.00 in0.0 mm 0.03 in0.8 mm
10:14 AM 50.5°F10.3°C 46.2°F7.9°C 85% 3.3 mph NW5.3 kmh NW 12.0 mph19.3 kmh 30.18 in1022.0 mb 0.00 in0.0 mm 0.00 in0.0 mm 0.03 in0.8 mm
10:19 AM 50.7°F10.4°C 46.3°F7.9°C 85% 3.2 mph NNW5.1 kmh NNW 8.0 mph12.9 kmh 30.18 in1022.0 mb 0.00 in0.0 mm 0.00 in0.0 mm 0.03 in0.8 mm
10:24 AM 50.8°F10.4°C 46.4°F8.0°C 85% 1.6 mph WNW2.6 kmh WNW 9.0 mph14.5 kmh 30.19 in1022.4 mb 0.00 in0.0 mm 0.00 in0.0 mm 0.03 in0.8 mm
10:29 AM 51.0°F10.6°C 46.0°F7.8°C 83% 4.2 mph NW6.8 kmh NW 10.0 mph16.1 kmh 30.19 in1022.4 mb 0.00 in0.0 mm 0.00 in0.0 mm 0.03 in0.8 mm
10:34 AM 51.0°F10.6°C 45.4°F7.4°C 81% 5.6 mph WNW9.0 kmh WNW 12.0 mph19.3 kmh 30.19 in1022.4 mb 0.00 in0.0 mm 0.00 in0.0 mm 0.03 in0.8 mm
10:39 AM 51.0°F10.6°C 45.7°F7.6°C 82% 4.5 mph NW7.2 kmh NW 12.0 mph19.3 kmh 30.19 in1022.4 mb 0.00 in0.0 mm 0.00 in0.0 mm 0.03 in0.8 mm
10:44 AM 51.1°F10.6°C 45.8°F7.7°C 82% 3.3 mph NW5.3 kmh NW 12.0 mph19.3 kmh 30.20 in1022.7 mb 0.00 in0.0 mm 0.00 in0.0 mm 0.03 in0.8 mm
10:49 AM 51.3°F10.7°C 45.7°F7.6°C 81% 3.5 mph W5.6 kmh W 10.0 mph16.1 kmh 30.20 in1022.7 mb 0.00 in0.0 mm 0.00 in0.0 mm 0.03 in0.8 mm
10:54 AM 51.7°F10.9°C 46.1°F7.8°C 81% 3.7 mph WNW6.0 kmh WNW 10.0 mph16.1 kmh 30.20 in1022.7 mb 0.00 in0.0 mm 0.00 in0.0 mm 0.03 in0.8 mm
10:59 AM 52.1°F11.2°C 46.5°F8.1°C 81% 3.6 mph WNW5.8 kmh WNW 10.0 mph16.1 kmh 30.20 in1022.7 mb 0.00 in0.0 mm 0.00 in0.0 mm 0.03 in0.8 mm
11:04 AM 52.6°F11.4°C 46.0°F7.8°C 78% 3.5 mph NNW5.6 kmh NNW 10.0 mph16.1 kmh 30.20 in1022.7 mb 0.00 in0.0 mm 0.00 in0.0 mm 0.03 in0.8 mm
11:09 AM 53.5°F11.9°C 46.5°F8.1°C 77% 4.0 mph NW6.4 kmh NW 10.0 mph16.1 kmh 30.20 in1022.7 mb 0.00 in0.0 mm 0.00 in0.0 mm 0.03 in0.8 mm
11:14 AM 53.7°F12.1°C 46.4°F8.0°C 76% 3.3 mph WNW5.3 kmh WNW 12.0 mph19.3 kmh 30.20 in1022.7 mb 0.00 in0.0 mm 0.00 in0.0 mm 0.03 in0.8 mm
11:19 AM 54.5°F12.5°C 46.8°F8.2°C 75% 2.4 mph NW3.9 kmh NW 12.0 mph19.3 kmh 30.20 in1022.7 mb 0.00 in0.0 mm 0.00 in0.0 mm 0.03 in0.8 mm
11:24 AM 54.3°F12.4°C 44.0°F6.7°C 68% 6.5 mph NNW10.5 kmh NNW 12.0 mph19.3 kmh 30.20 in1022.7 mb 0.00 in0.0 mm 0.00 in0.0 mm 0.03 in0.8 mm
11:29 AM 54.5°F12.5°C 45.3°F7.4°C 71% 2.9 mph NW4.7 kmh NW 12.0 mph19.3 kmh 30.20 in1022.7 mb 0.00 in0.0 mm 0.00 in0.0 mm 0.03 in0.8 mm
11:34 AM 54.8°F12.7°C 44.8°F7.1°C 69% 5.8 mph NNW9.3 kmh NNW 12.0 mph19.3 kmh 30.20 in1022.7 mb 0.00 in0.0 mm 0.00 in0.0 mm 0.03 in0.8 mm
11:39 AM 54.8°F12.7°C 44.9°F7.2°C 69% 3.9 mph NNW6.3 kmh NNW 12.0 mph19.3 kmh 30.21 in1023.0 mb 0.00 in0.0 mm 0.00 in0.0 mm 0.03 in0.8 mm
11:44 AM 55.3°F12.9°C 45.0°F7.2°C 68% 4.4 mph NW7.1 kmh NW 12.0 mph19.3 kmh 30.21 in1023.0 mb 0.00 in0.0 mm 0.00 in0.0 mm 0.03 in0.8 mm
11:49 AM 55.6°F13.1°C 45.3°F7.4°C 68% 4.2 mph NW6.8 kmh NW 12.0 mph19.3 kmh 30.22 in1023.4 mb 0.00 in0.0 mm 0.00 in0.0 mm 0.03 in0.8 mm
11:54 AM 55.8°F13.2°C 45.5°F7.5°C 68% 3.4 mph NNW5.5 kmh NNW 11.0 mph17.7 kmh 30.21 in1023.0 mb 0.00 in0.0 mm 0.00 in0.0 mm 0.03 in0.8 mm
11:59 AM 56.2°F13.4°C 45.1°F7.3°C 66% 3.5 mph WNW5.6 kmh WNW 11.0 mph17.7 kmh 30.21 in1023.0 mb 0.00 in0.0 mm 0.00 in0.0 mm 0.03 in0.8 mm
12:04 PM 56.9°F13.8°C 45.0°F7.2°C 64% 4.2 mph NW6.8 kmh NW 11.0 mph17.7 kmh 30.22 in1023.4 mb 0.00 in0.0 mm 0.00 in0.0 mm 0.03 in0.8 mm
12:09 PM 57.0°F13.9°C 43.4°F6.3°C 60% 8.1 mph NNW13.0 kmh NNW 17.0 mph27.4 kmh 30.22 in1023.4 mb 0.00 in0.0 mm 0.00 in0.0 mm 0.03 in0.8 mm
12:14 PM 57.2°F14.0°C 42.7°F5.9°C 58% 7.2 mph NNW11.6 kmh NNW 17.0 mph27.4 kmh 30.22 in1023.4 mb 0.00 in0.0 mm 0.00 in0.0 mm 0.03 in0.8 mm
12:19 PM 57.9°F14.4°C 43.3°F6.3°C 58% 6.5 mph N10.5 kmh N 17.0 mph27.4 kmh 30.22 in1023.4 mb 0.00 in0.0 mm 0.00 in0.0 mm 0.03 in0.8 mm
12:24 PM 58.2°F14.6°C 41.7°F5.4°C 54% 6.2 mph NNW10.0 kmh NNW 17.0 mph27.4 kmh 30.21 in1023.0 mb 0.00 in0.0 mm 0.00 in0.0 mm 0.03 in0.8 mm
12:29 PM 58.6°F14.8°C 39.5°F4.2°C 49% 6.1 mph NW9.8 kmh NW 14.0 mph22.5 kmh 30.21 in1023.0 mb 0.00 in0.0 mm 0.00 in0.0 mm 0.03 in0.8 mm
12:34 PM 59.1°F15.1°C 41.5°F5.3°C 52% 3.2 mph NW5.1 kmh NW 14.0 mph22.5 kmh 30.21 in1023.0 mb 0.00 in0.0 mm 0.00 in0.0 mm 0.03 in0.8 mm
12:39 PM 59.5°F15.3°C 38.1°F3.4°C 45% 6.5 mph NNW10.5 kmh NNW 14.0 mph22.5 kmh 30.21 in1023.0 mb 0.00 in0.0 mm 0.00 in0.0 mm 0.03 in0.8 mm
12:44 PM 59.5°F15.3°C 37.5°F3.1°C 44% 5.8 mph NW9.3 kmh NW 17.0 mph27.4 kmh 30.22 in1023.4 mb 0.00 in0.0 mm 0.00 in0.0 mm 0.03 in0.8 mm
12:49 PM 59.3°F15.2°C 36.1°F2.3°C 42% 7.9 mph NW12.7 kmh NW 17.0 mph27.4 kmh 30.22 in1023.4 mb 0.00 in0.0 mm 0.00 in0.0 mm 0.03 in0.8 mm
12:54 PM 59.4°F15.2°C 36.8°F2.7°C 43% 5.3 mph NNW8.5 kmh NNW 17.0 mph27.4 kmh 30.22 in1023.4 mb 0.00 in0.0 mm 0.00 in0.0 mm 0.03 in0.8 mm
12:59 PM 59.5°F15.3°C 36.3°F2.4°C 42% 6.5 mph NW10.5 kmh NW 17.0 mph27.4 kmh 30.21 in1023.0 mb 0.00 in0.0 mm 0.00 in0.0 mm 0.03 in0.8 mm
01:04 PM 59.5°F15.3°C 37.5°F3.1°C 44% 5.4 mph N8.7 kmh N 17.0 mph27.4 kmh 30.21 in1023.0 mb 0.00 in0.0 mm 0.00 in0.0 mm 0.03 in0.8 mm
01:09 PM 60.0°F15.6°C 36.7°F2.6°C 42% 6.2 mph N10.0 kmh N 17.0 mph27.4 kmh 30.21 in1023.0 mb 0.00 in0.0 mm 0.00 in0.0 mm 0.03 in0.8 mm
01:14 PM 60.3°F15.7°C 35.1°F1.7°C 39% 5.2 mph NW8.4 kmh NW 17.0 mph27.4 kmh 30.21 in1023.0 mb 0.00 in0.0 mm 0.00 in0.0 mm 0.03 in0.8 mm
01:19 PM 60.2°F15.7°C 35.8°F2.1°C 40% 4.7 mph NW7.6 kmh NW 14.0 mph22.5 kmh 30.21 in1023.0 mb 0.00 in0.0 mm 0.00 in0.0 mm 0.03 in0.8 mm
01:24 PM 60.3°F15.7°C 35.2°F1.8°C 39% 4.1 mph NW6.6 kmh NW 14.0 mph22.5 kmh 30.21 in1023.0 mb 0.00 in0.0 mm 0.00 in0.0 mm 0.03 in0.8 mm
01:29 PM 60.5°F15.8°C 33.2°F0.7°C 36% 8.2 mph NW13.2 kmh NW 15.0 mph24.1 kmh 30.21 in1023.0 mb 0.00 in0.0 mm 0.00 in0.0 mm 0.03 in0.8 mm
01:34 PM 60.7°F15.9°C 34.8°F1.6°C 38% 6.1 mph NW9.8 kmh NW 15.0 mph24.1 kmh 30.20 in1022.7 mb 0.00 in0.0 mm 0.00 in0.0 mm 0.03 in0.8 mm
01:39 PM 61.0°F16.1°C 35.0°F1.7°C 38% 5.3 mph NNW8.5 kmh NNW 17.0 mph27.4 kmh 30.20 in1022.7 mb 0.00 in0.0 mm 0.00 in0.0 mm 0.03 in0.8 mm
01:44 PM 61.2°F16.2°C 33.8°F1.0°C 36% 5.9 mph NW9.5 kmh NW 17.0 mph27.4 kmh 30.20 in1022.7 mb 0.00 in0.0 mm 0.00 in0.0 mm 0.03 in0.8 mm
01:49 PM 61.6°F16.4°C 32.9°F0.5°C 34% 8.4 mph NW13.5 kmh NW 17.0 mph27.4 kmh 30.20 in1022.7 mb 0.00 in0.0 mm 0.00 in0.0 mm 0.03 in0.8 mm
01:54 PM 62.0°F16.7°C 33.1°F0.6°C 34% 6.5 mph N10.5 kmh N 17.0 mph27.4 kmh 30.20 in1022.7 mb 0.00 in0.0 mm 0.00 in0.0 mm 0.03 in0.8 mm
01:59 PM 61.7°F16.5°C 32.8°F0.4°C 34% 7.9 mph N12.7 kmh N 16.0 mph25.7 kmh 30.19 in1022.4 mb 0.00 in0.0 mm 0.00 in0.0 mm 0.03 in0.8 mm
02:04 PM 61.7°F16.5°C 33.6°F0.9°C 35% 6.6 mph NNW10.6 kmh NNW 16.0 mph25.7 kmh 30.19 in1022.4 mb 0.00 in0.0 mm 0.00 in0.0 mm 0.03 in0.8 mm
02:09 PM 61.9°F16.6°C 33.7°F0.9°C 35% 6.2 mph NW10.0 kmh NW 16.0 mph25.7 kmh 30.19 in1022.4 mb 0.00 in0.0 mm 0.00 in0.0 mm 0.03 in0.8 mm
02:14 PM 62.0°F16.7°C 34.5°F1.4°C 36% 4.8 mph N7.7 kmh N 16.0 mph25.7 kmh 30.19 in1022.4 mb 0.00 in0.0 mm 0.00 in0.0 mm 0.03 in0.8 mm
02:19 PM 62.3°F16.8°C 34.1°F1.2°C 35% 6.5 mph NNW10.5 kmh NNW 15.0 mph24.1 kmh 30.19 in1022.4 mb 0.00 in0.0 mm 0.00 in0.0 mm 0.03 in0.8 mm
02:24 PM 62.4°F16.9°C 31.9°F-0.1°C 32% 8.4 mph N13.5 kmh N 15.0 mph24.1 kmh 30.19 in1022.4 mb 0.00 in0.0 mm 0.00 in0.0 mm 0.03 in0.8 mm
02:29 PM 62.3°F16.8°C 31.8°F-0.1°C 32% 6.1 mph NNW9.8 kmh NNW 18.0 mph29.0 kmh 30.19 in1022.4 mb 0.00 in0.0 mm 0.00 in0.0 mm 0.03 in0.8 mm
02:34 PM 62.5°F16.9°C 30.4°F-0.9°C 30% 7.8 mph NNW12.6 kmh NNW 18.0 mph29.0 kmh 30.19 in1022.4 mb 0.00 in0.0 mm 0.00 in0.0 mm 0.03 in0.8 mm
02:39 PM 62.7°F17.1°C 28.9°F-1.7°C 28% 5.6 mph NNW9.0 kmh NNW 18.0 mph29.0 kmh 30.19 in1022.4 mb 0.00 in0.0 mm 0.00 in0.0 mm 0.03 in0.8 mm
02:44 PM 63.0°F17.2°C 30.9°F-0.6°C 30% 7.3 mph NW11.7 kmh NW 16.0 mph25.7 kmh 30.19 in1022.4 mb 0.00 in0.0 mm 0.00 in0.0 mm 0.03 in0.8 mm
02:49 PM 63.3°F17.4°C 31.1°F-0.5°C 30% 5.3 mph NNW8.5 kmh NNW 16.0 mph25.7 kmh 30.19 in1022.4 mb 0.00 in0.0 mm 0.00 in0.0 mm 0.03 in0.8 mm
02:54 PM 63.2°F17.3°C 28.5°F-1.9°C 27% 7.5 mph NNW12.1 kmh NNW 17.0 mph27.4 kmh 30.19 in1022.4 mb 0.00 in0.0 mm 0.00 in0.0 mm 0.03 in0.8 mm
02:59 PM 63.2°F17.3°C 28.5°F-1.9°C 27% 7.3 mph NW11.7 kmh NW 17.0 mph27.4 kmh 30.19 in1022.4 mb 0.00 in0.0 mm 0.00 in0.0 mm 0.03 in0.8 mm
03:04 PM 63.2°F17.3°C 30.2°F-1.0°C 29% 5.8 mph NW9.3 kmh NW 17.0 mph27.4 kmh 30.19 in1022.4 mb 0.00 in0.0 mm 0.00 in0.0 mm 0.03 in0.8 mm
03:09 PM 63.3°F17.4°C 29.4°F-1.4°C 28% 7.3 mph NW11.7 kmh NW 16.0 mph25.7 kmh 30.19 in1022.4 mb 0.00 in0.0 mm 0.00 in0.0 mm 0.03 in0.8 mm
03:14 PM 63.8°F17.7°C 29.0°F-1.7°C 27% 4.9 mph NNW7.9 kmh NNW 16.0 mph25.7 kmh 30.19 in1022.4 mb 0.00 in0.0 mm 0.00 in0.0 mm 0.03 in0.8 mm
03:19 PM 63.9°F17.7°C 27.2°F-2.7°C 25% 7.7 mph N12.4 kmh N 15.0 mph24.1 kmh 30.19 in1022.4 mb 0.00 in0.0 mm 0.00 in0.0 mm 0.03 in0.8 mm
03:24 PM 63.6°F17.6°C 27.1°F-2.7°C 25% 11.5 mph N18.5 kmh N 18.0 mph29.0 kmh 30.19 in1022.4 mb 0.00 in0.0 mm 0.00 in0.0 mm 0.03 in0.8 mm
03:29 PM 63.5°F17.5°C 28.0°F-2.2°C 26% 5.3 mph NNW8.5 kmh NNW 18.0 mph29.0 kmh 30.19 in1022.4 mb 0.00 in0.0 mm 0.00 in0.0 mm 0.03 in0.8 mm
03:34 PM 63.4°F17.4°C 27.7°F-2.4°C 26% 6.7 mph N10.8 kmh N 18.0 mph29.0 kmh 30.19 in1022.4 mb 0.00 in0.0 mm 0.00 in0.0 mm 0.03 in0.8 mm
03:39 PM 63.5°F17.5°C 27.8°F-2.3°C 26% 6.7 mph N10.8 kmh N 18.0 mph29.0 kmh 30.19 in1022.4 mb 0.00 in0.0 mm 0.00 in0.0 mm 0.03 in0.8 mm
03:44 PM 63.7°F17.6°C 28.9°F-1.7°C 27% 4.5 mph NW7.2 kmh NW 15.0 mph24.1 kmh 30.18 in1022.0 mb 0.00 in0.0 mm 0.00 in0.0 mm 0.03 in0.8 mm
03:49 PM 63.9°F17.7°C 30.0°F-1.1°C 28% 4.5 mph N7.2 kmh N 14.0 mph22.5 kmh 30.18 in1022.0 mb 0.00 in0.0 mm 0.00 in0.0 mm 0.03 in0.8 mm
03:54 PM 63.5°F17.5°C 28.7°F-1.8°C 27% 6.3 mph NNW10.1 kmh NNW 14.0 mph22.5 kmh 30.18 in1022.0 mb 0.00 in0.0 mm 0.00 in0.0 mm 0.03 in0.8 mm
03:59 PM 63.5°F17.5°C 28.7°F-1.8°C 27% 5.0 mph NNW8.0 kmh NNW 14.0 mph22.5 kmh 30.18 in1022.0 mb 0.00 in0.0 mm 0.00 in0.0 mm 0.03 in0.8 mm
04:04 PM 64.0°F17.8°C 29.2°F-1.6°C 27% 4.7 mph N7.6 kmh N 14.0 mph22.5 kmh 30.18 in1022.0 mb 0.00 in0.0 mm 0.00 in0.0 mm 0.03 in0.8 mm
04:09 PM 64.3°F17.9°C 26.6°F-3.0°C 24% 6.3 mph N10.1 kmh N 14.0 mph22.5 kmh 30.18 in1022.0 mb 0.00 in0.0 mm 0.00 in0.0 mm 0.03 in0.8 mm
04:14 PM 64.4°F18.0°C 28.6°F-1.9°C 26% 2.9 mph NNW4.7 kmh NNW 12.0 mph19.3 kmh 30.18 in1022.0 mb 0.00 in0.0 mm 0.00 in0.0 mm 0.03 in0.8 mm
04:19 PM 64.2°F17.9°C 24.5°F-4.2°C 22% 6.8 mph N10.9 kmh N 14.0 mph22.5 kmh 30.19 in1022.4 mb 0.00 in0.0 mm 0.00 in0.0 mm 0.03 in0.8 mm
04:24 PM 63.9°F17.7°C 25.3°F-3.7°C 23% 3.8 mph NNW6.1 kmh NNW 14.0 mph22.5 kmh 30.19 in1022.4 mb 0.00 in0.0 mm 0.00 in0.0 mm 0.03 in0.8 mm
04:29 PM 63.7°F17.6°C 21.8°F-5.7°C 20% 8.2 mph NW13.2 kmh NW 16.0 mph25.7 kmh 30.19 in1022.4 mb 0.00 in0.0 mm 0.00 in0.0 mm 0.03 in0.8 mm
04:34 PM 63.6°F17.6°C 21.7°F-5.7°C 20% 7.3 mph NNW11.7 kmh NNW 16.0 mph25.7 kmh 30.19 in1022.4 mb 0.00 in0.0 mm 0.00 in0.0 mm 0.03 in0.8 mm
04:39 PM 63.7°F17.6°C 24.1°F-4.4°C 22% 3.6 mph NNW5.8 kmh NNW 16.0 mph25.7 kmh 30.19 in1022.4 mb 0.00 in0.0 mm 0.00 in0.0 mm 0.03 in0.8 mm
04:44 PM 63.7°F17.6°C 24.1°F-4.4°C 22% 7.4 mph NNW11.9 kmh NNW 16.0 mph25.7 kmh 30.20 in1022.7 mb 0.00 in0.0 mm 0.00 in0.0 mm 0.03 in0.8 mm
04:49 PM 63.2°F17.3°C 23.7°F-4.6°C 22% 8.1 mph NNW13.0 kmh NNW 19.0 mph30.6 kmh 30.20 in1022.7 mb 0.00 in0.0 mm 0.00 in0.0 mm 0.03 in0.8 mm
04:54 PM 62.7°F17.1°C 25.2°F-3.8°C 24% 6.0 mph NNW9.7 kmh NNW 19.0 mph30.6 kmh 30.20 in1022.7 mb 0.00 in0.0 mm 0.00 in0.0 mm 0.03 in0.8 mm
04:59 PM 62.7°F17.1°C 26.2°F-3.2°C 25% 4.7 mph NNW7.6 kmh NNW 19.0 mph30.6 kmh 30.21 in1023.0 mb 0.00 in0.0 mm 0.00 in0.0 mm 0.03 in0.8 mm
05:04 PM 62.6°F17.0°C 26.1°F-3.3°C 25% 9.0 mph NW14.5 kmh NW 19.0 mph30.6 kmh 30.21 in1023.0 mb 0.00 in0.0 mm 0.00 in0.0 mm 0.03 in0.8 mm
05:09 PM 62.3°F16.8°C 26.8°F-2.9°C 26% 4.7 mph NW7.6 kmh NW 17.0 mph27.4 kmh 30.21 in1023.0 mb 0.00 in0.0 mm 0.00 in0.0 mm 0.03 in0.8 mm
05:14 PM 62.2°F16.8°C 26.7°F-2.9°C 26% 7.1 mph NW11.4 kmh NW 17.0 mph27.4 kmh 30.21 in1023.0 mb 0.00 in0.0 mm 0.00 in0.0 mm 0.03 in0.8 mm
05:19 PM 61.7°F16.5°C 27.2°F-2.7°C 27% 5.7 mph NW9.2 kmh NW 17.0 mph27.4 kmh 30.21 in1023.0 mb 0.00 in0.0 mm 0.00 in0.0 mm 0.03 in0.8 mm
05:24 PM 61.3°F16.3°C 27.7°F-2.4°C 28% 5.6 mph NNW9.0 kmh NNW 15.0 mph24.1 kmh 30.21 in1023.0 mb 0.00 in0.0 mm 0.00 in0.0 mm 0.03 in0.8 mm
05:29 PM 61.0°F16.1°C 28.3°F-2.1°C 29% 3.2 mph NNW5.1 kmh NNW 15.0 mph24.1 kmh 30.21 in1023.0 mb 0.00 in0.0 mm 0.00 in0.0 mm 0.03 in0.8 mm
05:34 PM 60.9°F16.1°C 28.2°F-2.1°C 29% 3.8 mph NNW6.1 kmh NNW 14.0 mph22.5 kmh 30.21 in1023.0 mb 0.00 in0.0 mm 0.00 in0.0 mm 0.03 in0.8 mm
05:39 PM 60.7°F15.9°C 27.2°F-2.7°C 28% 5.8 mph N9.3 kmh N 11.0 mph17.7 kmh 30.20 in1022.7 mb 0.00 in0.0 mm 0.00 in0.0 mm 0.03 in0.8 mm
05:44 PM 60.5°F15.8°C 27.0°F-2.8°C 28% 4.0 mph NNW6.4 kmh NNW 11.0 mph17.7 kmh 30.21 in1023.0 mb 0.00 in0.0 mm 0.00 in0.0 mm 0.03 in0.8 mm
05:49 PM 60.4°F15.8°C 28.0°F-2.2°C 29% 2.8 mph NW4.5 kmh NW 11.0 mph17.7 kmh 30.23 in1023.7 mb 0.00 in0.0 mm 0.00 in0.0 mm 0.03 in0.8 mm
05:54 PM 60.3°F15.7°C 27.7°F-2.4°C 29% 1.8 mph NW2.9 kmh NW 11.0 mph17.7 kmh 30.23 in1023.7 mb 0.00 in0.0 mm 0.00 in0.0 mm 0.03 in0.8 mm
05:59 PM 60.3°F15.7°C 27.9°F-2.3°C 29% 2.3 mph NW3.7 kmh NW 9.0 mph14.5 kmh 30.25 in1024.4 mb 0.00 in0.0 mm 0.00 in0.0 mm 0.03 in0.8 mm
06:04 PM 60.2°F15.7°C 25.0°F-3.9°C 26% 5.1 mph NNW8.2 kmh NNW 9.0 mph14.5 kmh 30.24 in1024.0 mb 0.00 in0.0 mm 0.00 in0.0 mm 0.03 in0.8 mm
06:09 PM 60.2°F15.7°C 24.2°F-4.3°C 25% 4.3 mph NNW6.9 kmh NNW 9.0 mph14.5 kmh 30.24 in1024.0 mb 0.00 in0.0 mm 0.00 in0.0 mm 0.03 in0.8 mm
06:14 PM 60.1°F15.6°C 20.0°F-6.7°C 21% 5.9 mph NNW9.5 kmh NNW 13.0 mph20.9 kmh 30.24 in1024.0 mb 0.00 in0.0 mm 0.00 in0.0 mm 0.03 in0.8 mm
06:19 PM 60.0°F15.6°C 19.9°F-6.7°C 21% 6.0 mph NNW9.7 kmh NNW 13.0 mph20.9 kmh 30.25 in1024.4 mb 0.00 in0.0 mm 0.00 in0.0 mm 0.03 in0.8 mm
06:24 PM 59.8°F15.4°C 18.6°F-7.4°C 20% 5.6 mph NNW9.0 kmh NNW 13.0 mph20.9 kmh 30.25 in1024.4 mb 0.00 in0.0 mm 0.00 in0.0 mm 0.03 in0.8 mm
06:29 PM 59.7°F15.4°C 19.6°F-6.9°C 21% 3.3 mph NNW5.3 kmh NNW 13.0 mph20.9 kmh 30.25 in1024.4 mb 0.00 in0.0 mm 0.00 in0.0 mm 0.03 in0.8 mm
06:34 PM 59.5°F15.3°C 19.4°F-7.0°C 21% 1.9 mph NW3.1 kmh NW 13.0 mph20.9 kmh 30.24 in1024.0 mb 0.00 in0.0 mm 0.00 in0.0 mm 0.03 in0.8 mm
06:39 PM 59.4°F15.2°C 19.4°F-7.0°C 21% 1.7 mph NW2.7 kmh NW 13.0 mph20.9 kmh 30.24 in1024.0 mb 0.00 in0.0 mm 0.00 in0.0 mm 0.03 in0.8 mm
06:44 PM 59.2°F15.1°C 20.3°F-6.5°C 22% 2.2 mph WNW3.5 kmh WNW 7.0 mph11.3 kmh 30.26 in1024.7 mb 0.00 in0.0 mm 0.00 in0.0 mm 0.03 in0.8 mm
06:49 PM 59.2°F15.1°C 20.3°F-6.5°C 22% 3.3 mph NW5.3 kmh NW 7.0 mph11.3 kmh 30.25 in1024.4 mb 0.00 in0.0 mm 0.00 in0.0 mm 0.03 in0.8 mm
06:54 PM 59.2°F15.1°C 21.3°F-5.9°C 23% 2.6 mph NW4.2 kmh NW 6.0 mph9.7 kmh 30.25 in1024.4 mb 0.00 in0.0 mm 0.00 in0.0 mm 0.03 in0.8 mm
06:59 PM 59.1°F15.1°C 22.2°F-5.4°C 24% 1.9 mph NW3.1 kmh NW 7.0 mph11.3 kmh 30.25 in1024.4 mb 0.00 in0.0 mm 0.00 in0.0 mm 0.03 in0.8 mm
07:04 PM 59.1°F15.1°C 23.1°F-4.9°C 25% 1.4 mph NW2.3 kmh NW 7.0 mph11.3 kmh 30.25 in1024.4 mb 0.00 in0.0 mm 0.00 in0.0 mm 0.03 in0.8 mm
07:09 PM 58.9°F14.9°C 24.9°F-3.9°C 27% 4.5 mph WNW7.2 kmh WNW 9.0 mph14.5 kmh 30.25 in1024.4 mb 0.00 in0.0 mm 0.00 in0.0 mm 0.03 in0.8 mm
07:14 PM 58.6°F14.8°C 26.2°F-3.2°C 29% 1.8 mph NW2.9 kmh NW 9.0 mph14.5 kmh 30.26 in1024.7 mb 0.00 in0.0 mm 0.00 in0.0 mm 0.03 in0.8 mm
07:19 PM 58.3°F14.6°C 26.0°F-3.3°C 29% 2.9 mph NW4.7 kmh NW 9.0 mph14.5 kmh 30.27 in1025.1 mb 0.00 in0.0 mm 0.00 in0.0 mm 0.03 in0.8 mm
07:24 PM 58.1°F14.5°C 25.8°F-3.4°C 29% 3.8 mph NW6.1 kmh NW 9.0 mph14.5 kmh 30.29 in1025.7 mb 0.00 in0.0 mm 0.00 in0.0 mm 0.03 in0.8 mm
07:29 PM 57.8°F14.3°C 24.7°F-4.1°C 28% 3.7 mph NW6.0 kmh NW 9.0 mph14.5 kmh 30.28 in1025.4 mb 0.00 in0.0 mm 0.00 in0.0 mm 0.03 in0.8 mm
07:34 PM 57.6°F14.2°C 25.4°F-3.7°C 29% 2.3 mph NW3.7 kmh NW 9.0 mph14.5 kmh 30.29 in1025.7 mb 0.00 in0.0 mm 0.00 in0.0 mm 0.03 in0.8 mm
07:39 PM 57.5°F14.2°C 23.6°F-4.7°C 27% 3.5 mph NW5.6 kmh NW 9.0 mph14.5 kmh 30.28 in1025.4 mb 0.00 in0.0 mm 0.00 in0.0 mm 0.03 in0.8 mm
07:44 PM 57.3°F14.1°C 21.6°F-5.8°C 25% 3.7 mph NW6.0 kmh NW 10.0 mph16.1 kmh 30.28 in1025.4 mb 0.00 in0.0 mm 0.00 in0.0 mm 0.03 in0.8 mm
07:49 PM 57.1°F13.9°C 23.2°F-4.9°C 27% 2.3 mph NNW3.7 kmh NNW 10.0 mph16.1 kmh 30.28 in1025.4 mb 0.00 in0.0 mm 0.00 in0.0 mm 0.03 in0.8 mm
07:55 PM 57.0°F13.9°C 22.3°F-5.4°C 26% 3.2 mph NW5.1 kmh NW 10.0 mph16.1 kmh 30.28 in1025.4 mb 0.00 in0.0 mm 0.00 in0.0 mm 0.03 in0.8 mm
08:00 PM 56.8°F13.8°C 22.1°F-5.5°C 26% 4.2 mph NW6.8 kmh NW 9.0 mph14.5 kmh 30.29 in1025.7 mb 0.00 in0.0 mm 0.00 in0.0 mm 0.03 in0.8 mm
08:05 PM 56.7°F13.7°C 22.0°F-5.6°C 26% 3.2 mph N5.1 kmh N 9.0 mph14.5 kmh 30.28 in1025.4 mb 0.00 in0.0 mm 0.00 in0.0 mm 0.03 in0.8 mm
08:10 PM 56.5°F13.6°C 22.7°F-5.2°C 27% 2.7 mph NNW4.3 kmh NNW 9.0 mph14.5 kmh 30.29 in1025.7 mb 0.00 in0.0 mm 0.00 in0.0 mm 0.03 in0.8 mm
08:15 PM 56.4°F13.6°C 22.6°F-5.2°C 27% 3.2 mph N5.1 kmh N 9.0 mph14.5 kmh 30.28 in1025.4 mb 0.00 in0.0 mm 0.00 in0.0 mm 0.03 in0.8 mm
08:21 PM 56.3°F13.5°C 22.5°F-5.3°C 27% 2.7 mph NNW4.3 kmh NNW 9.0 mph14.5 kmh 30.30 in1026.1 mb 0.00 in0.0 mm 0.00 in0.0 mm 0.03 in0.8 mm
08:26 PM 56.2°F13.4°C 23.3°F-4.8°C 28% 2.7 mph NW4.3 kmh NW 8.0 mph12.9 kmh 30.31 in1026.4 mb 0.00 in0.0 mm 0.00 in0.0 mm 0.03 in0.8 mm
08:31 PM 56.2°F13.4°C 23.3°F-4.8°C 28% 3.1 mph NW5.0 kmh NW 8.0 mph12.9 kmh 30.31 in1026.4 mb 0.00 in0.0 mm 0.00 in0.0 mm 0.03 in0.8 mm
08:36 PM 56.1°F13.4°C 23.4°F-4.8°C 28% 2.9 mph NNW4.7 kmh NNW 8.0 mph12.9 kmh 30.31 in1026.4 mb 0.00 in0.0 mm 0.00 in0.0 mm 0.03 in0.8 mm
08:41 PM 56.0°F13.3°C 24.8°F-4.0°C 30% 2.5 mph NW4.0 kmh NW 8.0 mph12.9 kmh 30.31 in1026.4 mb 0.00 in0.0 mm 0.00 in0.0 mm 0.03 in0.8 mm
08:47 PM 55.8°F13.2°C 24.8°F-4.0°C 30% 4.1 mph NW6.6 kmh NW 8.0 mph12.9 kmh 30.31 in1026.4 mb 0.00 in0.0 mm 0.00 in0.0 mm 0.03 in0.8 mm
08:52 PM 55.7°F13.2°C 25.5°F-3.6°C 31% 3.6 mph NNW5.8 kmh NNW 8.0 mph12.9 kmh 30.31 in1026.4 mb 0.00 in0.0 mm 0.00 in0.0 mm 0.03 in0.8 mm
08:57 PM 55.5°F13.1°C 26.6°F-3.0°C 33% 3.0 mph NW4.8 kmh NW 7.0 mph11.3 kmh 30.32 in1026.8 mb 0.00 in0.0 mm 0.00 in0.0 mm 0.03 in0.8 mm
09:02 PM 55.3°F12.9°C 27.2°F-2.7°C 34% 3.6 mph NE5.8 kmh NE 7.0 mph11.3 kmh 30.30 in1026.1 mb 0.00 in0.0 mm 0.00 in0.0 mm 0.03 in0.8 mm
09:07 PM 55.0°F12.8°C 29.0°F-1.7°C 37% 1.9 mph NE3.1 kmh NE 7.0 mph11.3 kmh 30.31 in1026.4 mb 0.00 in0.0 mm 0.00 in0.0 mm 0.03 in0.8 mm
09:13 PM 54.3°F12.4°C 29.7°F-1.3°C 39% 2.8 mph N4.5 kmh N 7.0 mph11.3 kmh 30.32 in1026.8 mb 0.00 in0.0 mm 0.00 in0.0 mm 0.03 in0.8 mm
09:18 PM 53.9°F12.2°C 29.9°F-1.2°C 40% 2.4 mph NW3.9 kmh NW 7.0 mph11.3 kmh 30.33 in1027.1 mb 0.00 in0.0 mm 0.00 in0.0 mm 0.03 in0.8 mm
09:23 PM 53.5°F11.9°C 31.4°F-0.3°C 43% 2.5 mph NW4.0 kmh NW 7.0 mph11.3 kmh 30.33 in1027.1 mb 0.00 in0.0 mm 0.00 in0.0 mm 0.03 in0.8 mm
09:28 PM 53.3°F11.8°C 31.8°F-0.1°C 44% 1.6 mph NW2.6 kmh NW 6.0 mph9.7 kmh 30.33 in1027.1 mb 0.00 in0.0 mm 0.00 in0.0 mm 0.03 in0.8 mm
09:33 PM 53.1°F11.7°C 32.2°F0.1°C 45% 2.4 mph NW3.9 kmh NW 6.0 mph9.7 kmh 30.33 in1027.1 mb 0.00 in0.0 mm 0.00 in0.0 mm 0.03 in0.8 mm
09:39 PM 52.9°F11.6°C 32.6°F0.3°C 46% 1.7 mph NW2.7 kmh NW 6.0 mph9.7 kmh 30.33 in1027.1 mb 0.00 in0.0 mm 0.00 in0.0 mm 0.03 in0.8 mm
09:44 PM 52.7°F11.5°C 33.0°F0.6°C 47% 2.9 mph NNW4.7 kmh NNW 6.0 mph9.7 kmh 30.33 in1027.1 mb 0.00 in0.0 mm 0.00 in0.0 mm 0.03 in0.8 mm
09:49 PM 52.6°F11.4°C 32.9°F0.5°C 47% 2.1 mph N3.4 kmh N 7.0 mph11.3 kmh 30.33 in1027.1 mb 0.00 in0.0 mm 0.00 in0.0 mm 0.03 in0.8 mm
09:54 PM 52.5°F11.4°C 32.2°F0.1°C 46% 2.4 mph NNW3.9 kmh NNW 7.0 mph11.3 kmh 30.33 in1027.1 mb 0.00 in0.0 mm 0.00 in0.0 mm 0.03 in0.8 mm
10:00 PM 52.4°F11.3°C 32.7°F0.4°C 47% 3.0 mph N4.8 kmh N 7.0 mph11.3 kmh 30.33 in1027.1 mb 0.00 in0.0 mm 0.00 in0.0 mm 0.03 in0.8 mm
10:05 PM 52.4°F11.3°C 32.7°F0.4°C 47% 3.1 mph NW5.0 kmh NW 7.0 mph11.3 kmh 30.33 in1027.1 mb 0.00 in0.0 mm 0.00 in0.0 mm 0.03 in0.8 mm
10:10 PM 52.3°F11.3°C 33.1°F0.6°C 48% 2.9 mph NNW4.7 kmh NNW 7.0 mph11.3 kmh 30.32 in1026.8 mb 0.00 in0.0 mm 0.00 in0.0 mm 0.03 in0.8 mm
10:15 PM 52.1°F11.2°C 32.9°F0.5°C 48% 2.8 mph N4.5 kmh N 7.0 mph11.3 kmh 30.32 in1026.8 mb 0.00 in0.0 mm 0.00 in0.0 mm 0.03 in0.8 mm
10:20 PM 52.0°F11.1°C 33.4°F0.8°C 49% 1.4 mph NNW2.3 kmh NNW 7.0 mph11.3 kmh 30.32 in1026.8 mb 0.00 in0.0 mm 0.00 in0.0 mm 0.03 in0.8 mm
10:25 PM 51.9°F11.1°C 33.3°F0.7°C 49% 2.2 mph NW3.5 kmh NW 7.0 mph11.3 kmh 30.33 in1027.1 mb 0.00 in0.0 mm 0.00 in0.0 mm 0.03 in0.8 mm
10:31 PM 51.8°F11.0°C 33.7°F0.9°C 50% 3.4 mph N5.5 kmh N 7.0 mph11.3 kmh 30.32 in1026.8 mb 0.00 in0.0 mm 0.00 in0.0 mm 0.03 in0.8 mm
10:36 PM 51.7°F10.9°C 34.1°F1.2°C 51% 1.1 mph NNW1.8 kmh NNW 6.0 mph9.7 kmh 30.32 in1026.8 mb 0.00 in0.0 mm 0.00 in0.0 mm 0.03 in0.8 mm
10:41 PM 51.6°F10.9°C 34.6°F1.4°C 52% 1.9 mph NW3.1 kmh NW 6.0 mph9.7 kmh 30.33 in1027.1 mb 0.00 in0.0 mm 0.00 in0.0 mm 0.03 in0.8 mm
10:46 PM 51.5°F10.8°C 34.5°F1.4°C 52% 2.5 mph NW4.0 kmh NW 6.0 mph9.7 kmh 30.33 in1027.1 mb 0.00 in0.0 mm 0.00 in0.0 mm 0.03 in0.8 mm
10:52 PM 51.4°F10.8°C 34.9°F1.6°C 53% 3.5 mph NW5.6 kmh NW 7.0 mph11.3 kmh 30.33 in1027.1 mb 0.00 in0.0 mm 0.00 in0.0 mm 0.03 in0.8 mm
10:57 PM 51.3°F10.7°C 34.8°F1.6°C 53% 3.8 mph NW6.1 kmh NW 7.0 mph11.3 kmh 30.34 in1027.4 mb 0.00 in0.0 mm 0.00 in0.0 mm 0.03 in0.8 mm
11:02 PM 51.2°F10.7°C 34.7°F1.5°C 53% 3.2 mph NW5.1 kmh NW 7.0 mph11.3 kmh 30.34 in1027.4 mb 0.00 in0.0 mm 0.00 in0.0 mm 0.03 in0.8 mm
11:07 PM 51.2°F10.7°C 35.2°F1.8°C 54% 2.2 mph NW3.5 kmh NW 9.0 mph14.5 kmh 30.34 in1027.4 mb 0.00 in0.0 mm 0.00 in0.0 mm 0.03 in0.8 mm
11:12 PM 51.2°F10.7°C 35.6°F2.0°C 55% 2.6 mph NW4.2 kmh NW 9.0 mph14.5 kmh 30.34 in1027.4 mb 0.00 in0.0 mm 0.00 in0.0 mm 0.03 in0.8 mm
11:18 PM 51.1°F10.6°C 35.5°F1.9°C 55% 2.9 mph NW4.7 kmh NW 9.0 mph14.5 kmh 30.34 in1027.4 mb 0.00 in0.0 mm 0.00 in0.0 mm 0.03 in0.8 mm
11:23 PM 51.0°F10.6°C 35.0°F1.7°C 54% 3.7 mph NW6.0 kmh NW 7.0 mph11.3 kmh 30.35 in1027.8 mb 0.00 in0.0 mm 0.00 in0.0 mm 0.03 in0.8 mm
11:28 PM 51.0°F10.6°C 35.4°F1.9°C 55% 1.3 mph NW2.1 kmh NW 7.0 mph11.3 kmh 30.35 in1027.8 mb 0.00 in0.0 mm 0.00 in0.0 mm 0.03 in0.8 mm
11:33 PM 51.0°F10.6°C 35.9°F2.2°C 56% 1.4 mph N2.3 kmh N 7.0 mph11.3 kmh 30.34 in1027.4 mb 0.00 in0.0 mm 0.00 in0.0 mm 0.03 in0.8 mm
11:38 PM 50.9°F10.5°C 35.3°F1.8°C 55% 2.9 mph NW4.7 kmh NW 7.0 mph11.3 kmh 30.34 in1027.4 mb 0.00 in0.0 mm 0.00 in0.0 mm 0.03 in0.8 mm
11:44 PM 50.8°F10.4°C 35.7°F2.1°C 56% 1.5 mph NW2.4 kmh NW 7.0 mph11.3 kmh 30.34 in1027.4 mb 0.00 in0.0 mm 0.00 in0.0 mm 0.03 in0.8 mm
11:49 PM 50.7°F10.4°C 35.6°F2.0°C 56% 2.5 mph NW4.0 kmh NW 7.0 mph11.3 kmh 30.34 in1027.4 mb 0.00 in0.0 mm 0.00 in0.0 mm 0.03 in0.8 mm
11:54 PM 50.7°F10.4°C 35.6°F2.0°C 56% 1.7 mph NW2.7 kmh NW 7.0 mph11.3 kmh 30.34 in1027.4 mb 0.00 in0.0 mm 0.00 in0.0 mm 0.03 in0.8 mm
11:59 PM 50.7°F10.4°C 35.6°F2.0°C 56% 1.3 mph NW2.1 kmh NW 7.0 mph11.3 kmh 30.34 in1027.4 mb 0.00 in0.0 mm 0.00 in0.0 mm 0.03 in0.8 mm